sensor_id;sensor_type;location;lat;lon;timestamp;pressure;altitude;pressure_sealevel;temperature;humidity
76866;BME280;66647;52.124;5.416;2024-01-07T00:02:04;101982.13;;;0.37;100.00
76866;BME280;66647;52.124;5.416;2024-01-07T00:04:42;101992.91;;;0.37;100.00
76866;BME280;66647;52.124;5.416;2024-01-07T00:07:14;101989.16;;;0.38;100.00
76866;BME280;66647;52.124;5.416;2024-01-07T00:09:41;101992.69;;;0.39;100.00
76866;BME280;66647;52.124;5.416;2024-01-07T00:12:34;101993.50;;;0.39;100.00
76866;BME280;66647;52.124;5.416;2024-01-07T00:15:09;101989.16;;;0.38;100.00
76866;BME280;66647;52.124;5.416;2024-01-07T00:17:40;101995.63;;;0.37;100.00
76866;BME280;66647;52.124;5.416;2024-01-07T00:20:20;101995.84;;;0.36;100.00
76866;BME280;66647;52.124;5.416;2024-01-07T00:22:53;101999.25;;;0.31;100.00
76866;BME280;66647;52.124;5.416;2024-01-07T00:25:52;102009.00;;;0.32;100.00
76866;BME280;66647;52.124;5.416;2024-01-07T00:32:53;102010.88;;;0.31;100.00
76866;BME280;66647;52.124;5.416;2024-01-07T00:36:33;102006.28;;;0.32;100.00
76866;BME280;66647;52.124;5.416;2024-01-07T00:39:03;102014.84;;;0.29;100.00
76866;BME280;66647;52.124;5.416;2024-01-07T00:41:59;102014.25;;;0.27;100.00
76866;BME280;66647;52.124;5.416;2024-01-07T00:44:25;102024.22;;;0.26;100.00
76866;BME280;66647;52.124;5.416;2024-01-07T00:47:23;102023.16;;;0.27;100.00
76866;BME280;66647;52.124;5.416;2024-01-07T00:49:54;102030.66;;;0.25;100.00
76866;BME280;66647;52.124;5.416;2024-01-07T00:52:43;102026.69;;;0.28;100.00
76866;BME280;66647;52.124;5.416;2024-01-07T00:59:55;102029.97;;;0.30;100.00
76866;BME280;66647;52.124;5.416;2024-01-07T01:02:48;102038.06;;;0.30;100.00
76866;BME280;66647;52.124;5.416;2024-01-07T01:05:15;102038.28;;;0.28;100.00
76866;BME280;66647;52.124;5.416;2024-01-07T01:07:48;102032.31;;;0.26;100.00
76866;BME280;66647;52.124;5.416;2024-01-07T01:10:20;102034.63;;;0.23;100.00
76866;BME280;66647;52.124;5.416;2024-01-07T01:13:21;102040.03;;;0.23;100.00
76866;BME280;66647;52.124;5.416;2024-01-07T01:15:48;102044.16;;;0.25;100.00
76866;BME280;66647;52.124;5.416;2024-01-07T01:18:43;102038.75;;;0.25;100.00
76866;BME280;66647;52.124;5.416;2024-01-07T01:21:19;102042.50;;;0.24;100.00
76866;BME280;66647;52.124;5.416;2024-01-07T01:23:46;102050.81;;;0.23;100.00
76866;BME280;66647;52.124;5.416;2024-01-07T01:26:18;102057.25;;;0.22;100.00
76866;BME280;66647;52.124;5.416;2024-01-07T01:32:46;102053.38;;;0.18;100.00
76866;BME280;66647;52.124;5.416;2024-01-07T01:35:14;102046.09;;;0.18;100.00
76866;BME280;66647;52.124;5.416;2024-01-07T01:37:45;102055.47;;;0.16;100.00
76866;BME280;66647;52.124;5.416;2024-01-07T01:40:12;102056.50;;;0.15;100.00
76866;BME280;66647;52.124;5.416;2024-01-07T01:42:55;102065.19;;;0.17;100.00
76866;BME280;66647;52.124;5.416;2024-01-07T01:52:06;102084.09;;;0.17;100.00
76866;BME280;66647;52.124;5.416;2024-01-07T01:54:54;102084.09;;;0.17;100.00
76866;BME280;66647;52.124;5.416;2024-01-07T01:57:28;102083.25;;;0.16;100.00
76866;BME280;66647;52.124;5.416;2024-01-07T01:59:59;102087.38;;;0.19;100.00
76866;BME280;66647;52.124;5.416;2024-01-07T02:03:55;102095.25;;;0.20;100.00
76866;BME280;66647;52.124;5.416;2024-01-07T02:07:13;102099.81;;;0.20;100.00
76866;BME280;66647;52.124;5.416;2024-01-07T02:17:55;102105.66;;;0.17;100.00
76866;BME280;66647;52.124;5.416;2024-01-07T02:20:33;102098.59;;;0.16;100.00
76866;BME280;66647;52.124;5.416;2024-01-07T02:23:08;102111.50;;;0.14;100.00
76866;BME280;66647;52.124;5.416;2024-01-07T02:28:56;102115.63;;;0.16;100.00
76866;BME280;66647;52.124;5.416;2024-01-07T02:35:04;102119.13;;;0.17;100.00
76866;BME280;66647;52.124;5.416;2024-01-07T02:41:00;102117.03;;;0.19;100.00
76866;BME280;66647;52.124;5.416;2024-01-07T02:43:45;102120.56;;;0.19;100.00
76866;BME280;66647;52.124;5.416;2024-01-07T02:47:46;102129.31;;;0.15;100.00
76866;BME280;66647;52.124;5.416;2024-01-07T02:50:14;102124.75;;;0.15;100.00
76866;BME280;66647;52.124;5.416;2024-01-07T02:52:48;102117.50;;;0.16;100.00
76866;BME280;66647;52.124;5.416;2024-01-07T02:55:20;102133.06;;;0.14;100.00
76866;BME280;66647;52.124;5.416;2024-01-07T02:58:10;102123.09;;;0.14;100.00
76866;BME280;66647;52.124;5.416;2024-01-07T03:00:38;102126.63;;;0.15;100.00
76866;BME280;66647;52.124;5.416;2024-01-07T03:03:08;102132.84;;;0.15;100.00
76866;BME280;66647;52.124;5.416;2024-01-07T03:09:12;102139.66;;;0.18;100.00
76866;BME280;66647;52.124;5.416;2024-01-07T03:11:51;102137.41;;;0.15;100.00
76866;BME280;66647;52.124;5.416;2024-01-07T03:15:04;102138.69;;;0.12;100.00
76866;BME280;66647;52.124;5.416;2024-01-07T03:18:06;102138.31;;;0.09;100.00
76866;BME280;66647;52.124;5.416;2024-01-07T03:20:36;102148.66;;;0.12;100.00
76866;BME280;66647;52.124;5.416;2024-01-07T03:23:15;102143.25;;;0.12;100.00
76866;BME280;66647;52.124;5.416;2024-01-07T03:25:54;102154.88;;;0.12;100.00
76866;BME280;66647;52.124;5.416;2024-01-07T03:43:39;102159.72;;;0.04;100.00
76866;BME280;66647;52.124;5.416;2024-01-07T03:47:14;102167.22;;;0.02;100.00
76866;BME280;66647;52.124;5.416;2024-01-07T03:50:10;102172.97;;;0.05;100.00
76866;BME280;66647;52.124;5.416;2024-01-07T03:53:31;102175.91;;;0.04;100.00
76866;BME280;66647;52.124;5.416;2024-01-07T03:59:16;102182.56;;;0.01;100.00
76866;BME280;66647;52.124;5.416;2024-01-07T04:09:34;102199.66;;;-0.05;100.00
76866;BME280;66647;52.124;5.416;2024-01-07T04:12:01;102191.56;;;-0.05;100.00
76866;BME280;66647;52.124;5.416;2024-01-07T04:15:13;102201.75;;;-0.07;100.00
76866;BME280;66647;52.124;5.416;2024-01-07T04:18:05;102206.09;;;-0.06;100.00
76866;BME280;66647;52.124;5.416;2024-01-07T04:24:51;102202.56;;;-0.07;100.00
76866;BME280;66647;52.124;5.416;2024-01-07T04:27:19;102207.53;;;-0.04;100.00
76866;BME280;66647;52.124;5.416;2024-01-07T04:40:39;102229.47;;;0.00;100.00
76866;BME280;66647;52.124;5.416;2024-01-07T04:43:14;102223.25;;;-0.01;100.00
76866;BME280;66647;52.124;5.416;2024-01-07T04:45:41;102240.47;;;-0.02;100.00
76866;BME280;66647;52.124;5.416;2024-01-07T04:48:35;102246.44;;;0.00;100.00
76866;BME280;66647;52.124;5.416;2024-01-07T04:51:05;102244.81;;;-0.01;100.00
76866;BME280;66647;52.124;5.416;2024-01-07T04:57:03;102260.19;;;-0.01;100.00
76866;BME280;66647;52.124;5.416;2024-01-07T04:59:51;102259.34;;;-0.02;100.00
76866;BME280;66647;52.124;5.416;2024-01-07T05:02:22;102258.75;;;-0.04;100.00
76866;BME280;66647;52.124;5.416;2024-01-07T05:05:28;102273.28;;;-0.05;100.00
76866;BME280;66647;52.124;5.416;2024-01-07T05:12:05;102272.22;;;-0.04;100.00
76866;BME280;66647;52.124;5.416;2024-01-07T05:14:32;102275.53;;;-0.02;100.00
76866;BME280;66647;52.124;5.416;2024-01-07T05:36:04;102296.63;;;0.02;100.00
76866;BME280;66647;52.124;5.416;2024-01-07T05:38:35;102299.56;;;0.00;100.00
76866;BME280;66647;52.124;5.416;2024-01-07T05:41:49;102299.78;;;-0.02;100.00
76866;BME280;66647;52.124;5.416;2024-01-07T05:44:25;102300.84;;;-0.03;100.00
76866;BME280;66647;52.124;5.416;2024-01-07T05:50:35;102314.94;;;-0.01;100.00
76866;BME280;66647;52.124;5.416;2024-01-07T05:53:03;102325.09;;;-0.03;100.00
76866;BME280;66647;52.124;5.416;2024-01-07T05:56:15;102321.78;;;-0.05;100.00
76866;BME280;66647;52.124;5.416;2024-01-07T05:59:49;102331.31;;;-0.02;100.00
76866;BME280;66647;52.124;5.416;2024-01-07T06:02:49;102327.81;;;-0.03;100.00
76866;BME280;66647;52.124;5.416;2024-01-07T06:05:17;102335.28;;;-0.05;100.00
76866;BME280;66647;52.124;5.416;2024-01-07T06:10:58;102337.97;;;-0.05;100.00
76866;BME280;66647;52.124;5.416;2024-01-07T06:14:12;102343.97;;;-0.03;100.00
76866;BME280;66647;52.124;5.416;2024-01-07T06:16:40;102343.59;;;-0.06;100.00
76866;BME280;66647;52.124;5.416;2024-01-07T06:19:06;102349.81;;;-0.06;100.00
76866;BME280;66647;52.124;5.416;2024-01-07T06:22:04;102357.88;;;-0.06;100.00
76866;BME280;66647;52.124;5.416;2024-01-07T06:43:58;102383.22;;;-0.13;100.00
76866;BME280;66647;52.124;5.416;2024-01-07T06:51:27;102390.31;;;-0.19;100.00
76866;BME280;66647;52.124;5.416;2024-01-07T06:53:56;102398.41;;;-0.19;100.00
76866;BME280;66647;52.124;5.416;2024-01-07T07:20:35;102449.00;;;-0.21;100.00
76866;BME280;66647;52.124;5.416;2024-01-07T07:23:43;102444.44;;;-0.20;100.00
76866;BME280;66647;52.124;5.416;2024-01-07T07:26:12;102449.63;;;-0.19;100.00
76866;BME280;66647;52.124;5.416;2024-01-07T07:28:49;102454.38;;;-0.21;100.00
76866;BME280;66647;52.124;5.416;2024-01-07T07:31:35;102461.44;;;-0.20;100.00
76866;BME280;66647;52.124;5.416;2024-01-07T07:41:41;102460.00;;;-0.22;100.00
76866;BME280;66647;52.124;5.416;2024-01-07T07:44:29;102469.13;;;-0.23;100.00
76866;BME280;66647;52.124;5.416;2024-01-07T07:50:18;102481.78;;;-0.24;100.00
76866;BME280;66647;52.124;5.416;2024-01-07T07:52:51;102486.53;;;-0.26;100.00
76866;BME280;66647;52.124;5.416;2024-01-07T07:59:36;102497.75;;;-0.29;100.00
76866;BME280;66647;52.124;5.416;2024-01-07T08:02:03;102510.41;;;-0.29;100.00
76866;BME280;66647;52.124;5.416;2024-01-07T08:04:58;102510.41;;;-0.29;100.00
76866;BME280;66647;52.124;5.416;2024-01-07T08:08:09;102521.19;;;-0.29;100.00
76866;BME280;66647;52.124;5.416;2024-01-07T08:10:40;102524.09;;;-0.31;100.00
76866;BME280;66647;52.124;5.416;2024-01-07T08:14:01;102528.66;;;-0.31;100.00
76866;BME280;66647;52.124;5.416;2024-01-07T08:17:18;102531.75;;;-0.28;100.00
76866;BME280;66647;52.124;5.416;2024-01-07T08:23:51;102534.44;;;-0.28;100.00
76866;BME280;66647;52.124;5.416;2024-01-07T08:27:05;102536.53;;;-0.30;100.00
76866;BME280;66647;52.124;5.416;2024-01-07T08:30:47;102547.72;;;-0.26;100.00
76866;BME280;66647;52.124;5.416;2024-01-07T08:34:13;102553.13;;;-0.33;100.00
76866;BME280;66647;52.124;5.416;2024-01-07T08:40:43;102567.19;;;-0.31;100.00
76866;BME280;66647;52.124;5.416;2024-01-07T08:43:20;102566.63;;;-0.33;100.00
76866;BME280;66647;52.124;5.416;2024-01-07T08:45:53;102563.09;;;-0.33;100.00
76866;BME280;66647;52.124;5.416;2024-01-07T08:48:20;102561.03;;;-0.38;100.00
76866;BME280;66647;52.124;5.416;2024-01-07T08:54:59;102585.91;;;-0.36;100.00
76866;BME280;66647;52.124;5.416;2024-01-07T09:06:22;102598.97;;;-0.33;100.00
76866;BME280;66647;52.124;5.416;2024-01-07T09:09:30;102600.59;;;-0.32;100.00
76866;BME280;66647;52.124;5.416;2024-01-07T09:12:16;102611.78;;;-0.28;100.00
76866;BME280;66647;52.124;5.416;2024-01-07T09:14:44;102606.59;;;-0.30;100.00
76866;BME280;66647;52.124;5.416;2024-01-07T09:21:08;102620.69;;;-0.28;100.00
76866;BME280;66647;52.124;5.416;2024-01-07T09:27:32;102636.03;;;-0.22;100.00
76866;BME280;66647;52.124;5.416;2024-01-07T09:30:24;102639.13;;;-0.25;100.00
76866;BME280;66647;52.124;5.416;2024-01-07T09:33:09;102643.91;;;-0.27;100.00
76866;BME280;66647;52.124;5.416;2024-01-07T09:35:35;102654.91;;;-0.28;100.00
76866;BME280;66647;52.124;5.416;2024-01-07T09:38:02;102657.59;;;-0.28;100.00
76866;BME280;66647;52.124;5.416;2024-01-07T09:40:30;102658.00;;;-0.25;100.00
76866;BME280;66647;52.124;5.416;2024-01-07T09:43:32;102661.31;;;-0.23;100.00
76866;BME280;66647;52.124;5.416;2024-01-07T09:50:56;102656.56;;;-0.27;100.00
76866;BME280;66647;52.124;5.416;2024-01-07T09:53:42;102672.53;;;-0.26;100.00
76866;BME280;66647;52.124;5.416;2024-01-07T10:00:39;102684.13;;;-0.25;99.16
76866;BME280;66647;52.124;5.416;2024-01-07T10:03:45;102679.16;;;-0.22;97.62
76866;BME280;66647;52.124;5.416;2024-01-07T10:06:25;102682.47;;;-0.20;97.95
76866;BME280;66647;52.124;5.416;2024-01-07T10:09:17;102683.09;;;-0.18;96.55
76866;BME280;66647;52.124;5.416;2024-01-07T10:11:52;102685.78;;;-0.18;96.30
76866;BME280;66647;52.124;5.416;2024-01-07T10:14:26;102682.47;;;-0.20;94.01
76866;BME280;66647;52.124;5.416;2024-01-07T10:17:15;102682.88;;;-0.16;95.09
76866;BME280;66647;52.124;5.416;2024-01-07T10:19:44;102689.94;;;-0.09;94.34
76866;BME280;66647;52.124;5.416;2024-01-07T10:22:12;102697.81;;;-0.07;94.85
76866;BME280;66647;52.124;5.416;2024-01-07T10:24:51;102696.56;;;-0.05;92.86
76866;BME280;66647;52.124;5.416;2024-01-07T10:29:59;102698.19;;;0.10;91.89
76866;BME280;66647;52.124;5.416;2024-01-07T10:32:25;102706.88;;;0.31;92.81
76866;BME280;66647;52.124;5.416;2024-01-07T10:34:59;102711.63;;;1.25;92.69
76866;BME280;66647;52.124;5.416;2024-01-07T10:37:29;102719.22;;;1.91;87.44
76866;BME280;66647;52.124;5.416;2024-01-07T10:39:59;102721.75;;;2.29;86.30
76866;BME280;66647;52.124;5.416;2024-01-07T10:42:33;102721.47;;;2.38;85.11
76866;BME280;66647;52.124;5.416;2024-01-07T10:45:01;102725.63;;;3.07;80.11
76866;BME280;66647;52.124;5.416;2024-01-07T10:47:31;102732.59;;;3.44;80.43
76866;BME280;66647;52.124;5.416;2024-01-07T10:50:02;102731.34;;;3.70;77.90
76866;BME280;66647;52.124;5.416;2024-01-07T10:52:38;102722.34;;;3.46;73.40
76866;BME280;66647;52.124;5.416;2024-01-07T10:58:36;102740.06;;;2.09;79.18
76866;BME280;66647;52.124;5.416;2024-01-07T11:01:03;102731.38;;;1.82;79.52
76866;BME280;66647;52.124;5.416;2024-01-07T11:07:03;102734.28;;;2.97;79.20
76866;BME280;66647;52.124;5.416;2024-01-07T11:09:36;102723.44;;;3.57;77.35
76866;BME280;66647;52.124;5.416;2024-01-07T11:21:05;102731.69;;;4.55;70.86
76866;BME280;66647;52.124;5.416;2024-01-07T11:23:48;102730.63;;;4.56;73.02
76866;BME280;66647;52.124;5.416;2024-01-07T11:26:14;102730.72;;;5.01;67.22
76866;BME280;66647;52.124;5.416;2024-01-07T11:28:52;102718.03;;;5.19;66.16
76866;BME280;66647;52.124;5.416;2024-01-07T11:31:21;102727.03;;;4.79;66.45
76866;BME280;66647;52.124;5.416;2024-01-07T11:33:49;102735.81;;;5.71;65.39
76866;BME280;66647;52.124;5.416;2024-01-07T11:36:28;102715.94;;;6.04;66.38
76866;BME280;66647;52.124;5.416;2024-01-07T11:39:00;102734.34;;;5.81;62.42
76866;BME280;66647;52.124;5.416;2024-01-07T11:41:32;102728.84;;;5.30;62.25
76866;BME280;66647;52.124;5.416;2024-01-07T11:44:17;102733.00;;;3.71;65.44
76866;BME280;66647;52.124;5.416;2024-01-07T11:46:46;102737.69;;;2.92;67.83
76866;BME280;66647;52.124;5.416;2024-01-07T11:49:25;102739.38;;;2.57;70.09
76866;BME280;66647;52.124;5.416;2024-01-07T11:52:18;102739.19;;;2.33;72.57
76866;BME280;66647;52.124;5.416;2024-01-07T11:54:49;102736.88;;;2.19;71.59
76866;BME280;66647;52.124;5.416;2024-01-07T11:57:16;102737.63;;;2.44;72.37
76866;BME280;66647;52.124;5.416;2024-01-07T11:59:44;102744.84;;;2.87;73.82
76866;BME280;66647;52.124;5.416;2024-01-07T12:03:04;102731.59;;;4.38;69.89
76866;BME280;66647;52.124;5.416;2024-01-07T12:05:31;102723.38;;;5.14;66.08
76866;BME280;66647;52.124;5.416;2024-01-07T12:08:00;102728.97;;;5.24;60.02
76866;BME280;66647;52.124;5.416;2024-01-07T12:10:59;102729.38;;;5.16;62.83
76866;BME280;66647;52.124;5.416;2024-01-07T12:14:00;102718.81;;;5.64;61.61
76866;BME280;66647;52.124;5.416;2024-01-07T12:16:31;102725.47;;;5.57;61.34
76866;BME280;66647;52.124;5.416;2024-01-07T12:23:21;102728.69;;;5.54;63.26
76866;BME280;66647;52.124;5.416;2024-01-07T12:26:07;102734.09;;;5.82;60.95
76866;BME280;66647;52.124;5.416;2024-01-07T12:29:00;102739.91;;;5.12;62.48
76866;BME280;66647;52.124;5.416;2024-01-07T12:31:31;102742.53;;;4.55;60.71
76866;BME280;66647;52.124;5.416;2024-01-07T12:34:07;102752.03;;;4.06;63.51
76866;BME280;66647;52.124;5.416;2024-01-07T12:36:39;102749.22;;;3.59;62.82
76866;BME280;66647;52.124;5.416;2024-01-07T12:39:06;102763.53;;;3.55;64.82
76866;BME280;66647;52.124;5.416;2024-01-07T12:41:33;102755.78;;;3.93;63.36
76866;BME280;66647;52.124;5.416;2024-01-07T12:43:59;102747.78;;;3.98;63.52
76866;BME280;66647;52.124;5.416;2024-01-07T12:46:31;102764.97;;;3.92;62.46
76866;BME280;66647;52.124;5.416;2024-01-07T12:48:58;102766.88;;;3.38;64.15
76866;BME280;66647;52.124;5.416;2024-01-07T12:51:24;102780.72;;;3.19;64.76
76866;BME280;66647;52.124;5.416;2024-01-07T12:54:11;102775.97;;;3.14;65.02
76866;BME280;66647;52.124;5.416;2024-01-07T12:56:38;102779.63;;;2.72;65.28
76866;BME280;66647;52.124;5.416;2024-01-07T12:59:05;102771.19;;;2.43;65.41
76866;BME280;66647;52.124;5.416;2024-01-07T13:01:31;102784.38;;;2.15;68.02
76866;BME280;66647;52.124;5.416;2024-01-07T13:03:58;102787.16;;;2.01;68.50
76866;BME280;66647;52.124;5.416;2024-01-07T13:06:25;102786.91;;;1.85;69.37
76866;BME280;66647;52.124;5.416;2024-01-07T13:08:56;102789.47;;;1.73;71.02
76866;BME280;66647;52.124;5.416;2024-01-07T13:11:23;102775.25;;;1.84;70.06
76866;BME280;66647;52.124;5.416;2024-01-07T13:13:50;102779.94;;;1.95;69.36
76866;BME280;66647;52.124;5.416;2024-01-07T13:16:16;102785.47;;;2.07;69.08
76866;BME280;66647;52.124;5.416;2024-01-07T13:18:45;102780.78;;;2.21;71.42
76866;BME280;66647;52.124;5.416;2024-01-07T13:21:12;102782.59;;;2.27;70.85
76866;BME280;66647;52.124;5.416;2024-01-07T13:23:39;102786.34;;;2.26;70.83
76866;BME280;66647;52.124;5.416;2024-01-07T13:26:08;102789.47;;;1.98;70.05
76866;BME280;66647;52.124;5.416;2024-01-07T13:28:36;102792.13;;;1.80;69.31
76866;BME280;66647;52.124;5.416;2024-01-07T13:31:03;102783.03;;;1.74;70.62
76866;BME280;66647;52.124;5.416;2024-01-07T13:36:32;102793.66;;;1.69;71.52
76866;BME280;66647;52.124;5.416;2024-01-07T13:39:11;102794.53;;;1.63;70.94
76866;BME280;66647;52.124;5.416;2024-01-07T13:41:42;102806.31;;;1.44;70.62
76866;BME280;66647;52.124;5.416;2024-01-07T13:44:27;102817.31;;;1.49;70.97
76866;BME280;66647;52.124;5.416;2024-01-07T13:46:53;102813.78;;;1.42;70.94
76866;BME280;66647;52.124;5.416;2024-01-07T13:49:20;102821.28;;;1.40;71.18
76866;BME280;66647;52.124;5.416;2024-01-07T13:51:46;102824.03;;;1.33;71.21
76866;BME280;66647;52.124;5.416;2024-01-07T13:54:13;102832.53;;;1.37;70.80
76866;BME280;66647;52.124;5.416;2024-01-07T13:56:40;102827.59;;;1.27;69.60
76866;BME280;66647;52.124;5.416;2024-01-07T13:59:11;102832.63;;;1.23;71.15
76866;BME280;66647;52.124;5.416;2024-01-07T14:01:40;102839.72;;;1.11;69.57
76866;BME280;66647;52.124;5.416;2024-01-07T14:04:09;102846.19;;;1.04;71.26
76866;BME280;66647;52.124;5.416;2024-01-07T14:06:35;102837.50;;;0.95;70.63
76866;BME280;66647;52.124;5.416;2024-01-07T14:09:04;102847.69;;;0.86;70.41
76866;BME280;66647;52.124;5.416;2024-01-07T14:11:32;102847.50;;;0.81;71.35
76866;BME280;66647;52.124;5.416;2024-01-07T14:13:59;102850.63;;;0.78;72.83
76866;BME280;66647;52.124;5.416;2024-01-07T14:16:30;102852.69;;;0.83;73.12
76866;BME280;66647;52.124;5.416;2024-01-07T14:18:56;102861.41;;;0.85;74.32
76866;BME280;66647;52.124;5.416;2024-01-07T14:21:23;102859.13;;;0.82;72.12
76866;BME280;66647;52.124;5.416;2024-01-07T14:23:51;102869.31;;;0.80;73.17
76866;BME280;66647;52.124;5.416;2024-01-07T14:26:18;102874.28;;;0.83;73.47
76866;BME280;66647;52.124;5.416;2024-01-07T14:28:50;102880.75;;;0.75;72.81
76866;BME280;66647;52.124;5.416;2024-01-07T14:32:05;102887.81;;;0.70;73.87
76866;BME280;66647;52.124;5.416;2024-01-07T14:34:39;102890.72;;;0.68;74.63
76866;BME280;66647;52.124;5.416;2024-01-07T14:37:08;102894.44;;;0.67;74.59
76866;BME280;66647;52.124;5.416;2024-01-07T14:39:37;102894.47;;;0.60;73.62
76866;BME280;66647;52.124;5.416;2024-01-07T14:42:04;102901.13;;;0.58;73.54
76866;BME280;66647;52.124;5.416;2024-01-07T14:44:31;102908.38;;;0.57;73.86
76866;BME280;66647;52.124;5.416;2024-01-07T14:47:10;102905.91;;;0.56;74.06
76866;BME280;66647;52.124;5.416;2024-01-07T14:49:48;102903.19;;;0.56;75.24
76866;BME280;66647;52.124;5.416;2024-01-07T14:52:25;102903.00;;;0.51;75.38
76866;BME280;66647;52.124;5.416;2024-01-07T14:55:06;102916.06;;;0.47;74.82
76866;BME280;66647;52.124;5.416;2024-01-07T14:57:44;102918.97;;;0.46;75.33
76866;BME280;66647;52.124;5.416;2024-01-07T15:00:11;102913.16;;;0.42;75.74
76866;BME280;66647;52.124;5.416;2024-01-07T15:02:46;102917.91;;;0.40;75.30
76866;BME280;66647;52.124;5.416;2024-01-07T15:05:52;102917.72;;;0.35;75.98
76866;BME280;66647;52.124;5.416;2024-01-07T15:08:32;102922.72;;;0.31;75.29
76866;BME280;66647;52.124;5.416;2024-01-07T15:11:24;102925.63;;;0.30;75.78
76866;BME280;66647;52.124;5.416;2024-01-07T15:13:50;102923.53;;;0.25;75.61
76866;BME280;66647;52.124;5.416;2024-01-07T15:16:43;102927.69;;;0.21;77.15
76866;BME280;66647;52.124;5.416;2024-01-07T15:19:18;102943.03;;;0.21;76.74
76866;BME280;66647;52.124;5.416;2024-01-07T15:21:45;102946.34;;;0.16;76.50
76866;BME280;66647;52.124;5.416;2024-01-07T15:24:12;102948.41;;;0.14;76.33
76866;BME280;66647;52.124;5.416;2024-01-07T15:26:58;102943.63;;;0.10;77.36
76866;BME280;66647;52.124;5.416;2024-01-07T15:29:27;102955.03;;;0.12;77.59
76866;BME280;66647;52.124;5.416;2024-01-07T15:31:56;102956.69;;;0.13;77.61
76866;BME280;66647;52.124;5.416;2024-01-07T15:34:41;102965.41;;;0.08;78.67
76866;BME280;66647;52.124;5.416;2024-01-07T15:49:26;102977.97;;;-0.19;79.03
76866;BME280;66647;52.124;5.416;2024-01-07T16:04:17;102989.75;;;-0.33;80.80
76866;BME280;66647;52.124;5.416;2024-01-07T16:07:14;102996.56;;;-0.37;81.51
76866;BME280;66647;52.124;5.416;2024-01-07T16:09:45;102999.66;;;-0.40;81.50
76866;BME280;66647;52.124;5.416;2024-01-07T16:12:26;102993.00;;;-0.44;82.15
76866;BME280;66647;52.124;5.416;2024-01-07T16:18:14;103003.16;;;-0.46;83.03
76866;BME280;66647;52.124;5.416;2024-01-07T16:20:46;103009.31;;;-0.52;82.49
76866;BME280;66647;52.124;5.416;2024-01-07T16:23:38;103013.06;;;-0.53;82.79
76866;BME280;66647;52.124;5.416;2024-01-07T16:26:14;103020.69;;;-0.57;83.58
76866;BME280;66647;52.124;5.416;2024-01-07T16:28:57;103020.25;;;-0.60;83.53
76866;BME280;66647;52.124;5.416;2024-01-07T16:31:34;103024.81;;;-0.61;84.29
76866;BME280;66647;52.124;5.416;2024-01-07T16:34:03;103028.97;;;-0.65;83.93
76866;BME280;66647;52.124;5.416;2024-01-07T16:37:20;103034.75;;;-0.68;84.28
76866;BME280;66647;52.124;5.416;2024-01-07T16:40:07;103040.97;;;-0.68;84.46
76866;BME280;66647;52.124;5.416;2024-01-07T16:42:43;103038.66;;;-0.71;84.58
76866;BME280;66647;52.124;5.416;2024-01-07T16:45:22;103043.41;;;-0.73;84.93
76866;BME280;66647;52.124;5.416;2024-01-07T16:47:53;103040.28;;;-0.76;85.29
76866;BME280;66647;52.124;5.416;2024-01-07T16:50:22;103043.53;;;-0.81;85.39
76866;BME280;66647;52.124;5.416;2024-01-07T16:52:52;103048.94;;;-0.81;85.29
76866;BME280;66647;52.124;5.416;2024-01-07T16:55:39;103048.47;;;-0.84;86.00
76866;BME280;66647;52.124;5.416;2024-01-07T16:58:06;103052.41;;;-0.87;86.17
76866;BME280;66647;52.124;5.416;2024-01-07T17:00:34;103059.66;;;-0.87;86.45
76866;BME280;66647;52.124;5.416;2024-01-07T17:03:01;103060.03;;;-0.90;85.92
76866;BME280;66647;52.124;5.416;2024-01-07T17:05:27;103065.81;;;-0.93;86.62
76866;BME280;66647;52.124;5.416;2024-01-07T17:11:16;103071.56;;;-0.96;87.31
76866;BME280;66647;52.124;5.416;2024-01-07T17:13:48;103063.09;;;-1.00;87.98
76866;BME280;66647;52.124;5.416;2024-01-07T17:16:28;103066.81;;;-1.01;88.96
76866;BME280;66647;52.124;5.416;2024-01-07T17:18:59;103079.63;;;-1.03;88.88
76866;BME280;66647;52.124;5.416;2024-01-07T17:21:51;103076.28;;;-1.05;89.16
76866;BME280;66647;52.124;5.416;2024-01-07T17:24:29;103081.88;;;-1.07;89.51
76866;BME280;66647;52.124;5.416;2024-01-07T17:27:17;103089.50;;;-1.10;90.10
76866;BME280;66647;52.124;5.416;2024-01-07T17:29:44;103086.34;;;-1.14;89.99
76866;BME280;66647;52.124;5.416;2024-01-07T17:32:11;103088.59;;;-1.17;90.66
76866;BME280;66647;52.124;5.416;2024-01-07T17:34:41;103086.09;;;-1.19;91.20
76866;BME280;66647;52.124;5.416;2024-01-07T17:37:08;103090.81;;;-1.21;91.62
76866;BME280;66647;52.124;5.416;2024-01-07T17:39:37;103098.44;;;-1.24;91.73
76866;BME280;66647;52.124;5.416;2024-01-07T17:45:45;103102.75;;;-1.30;93.42
76866;BME280;66647;52.124;5.416;2024-01-07T17:48:15;103099.25;;;-1.30;93.36
76866;BME280;66647;52.124;5.416;2024-01-07T17:50:47;103110.84;;;-1.30;93.66
76866;BME280;66647;52.124;5.416;2024-01-07T17:53:49;103114.75;;;-1.32;94.48
76866;BME280;66647;52.124;5.416;2024-01-07T17:56:21;103118.66;;;-1.35;95.01
76866;BME280;66647;52.124;5.416;2024-01-07T17:58:48;103115.13;;;-1.36;95.25
76866;BME280;66647;52.124;5.416;2024-01-07T18:01:16;103123.38;;;-1.37;95.67
76866;BME280;66647;52.124;5.416;2024-01-07T18:03:43;103129.16;;;-1.40;95.91
76866;BME280;66647;52.124;5.416;2024-01-07T18:06:09;103136.56;;;-1.42;96.43
76866;BME280;66647;52.124;5.416;2024-01-07T18:08:36;103127.66;;;-1.43;96.62
76866;BME280;66647;52.124;5.416;2024-01-07T18:11:15;103135.09;;;-1.45;96.96
76866;BME280;66647;52.124;5.416;2024-01-07T18:13:41;103138.78;;;-1.46;97.05
76866;BME280;66647;52.124;5.416;2024-01-07T18:16:08;103145.19;;;-1.47;97.40
76866;BME280;66647;52.124;5.416;2024-01-07T18:18:36;103141.88;;;-1.49;97.76
76866;BME280;66647;52.124;5.416;2024-01-07T18:21:03;103144.94;;;-1.52;98.04
76866;BME280;66647;52.124;5.416;2024-01-07T18:23:29;103141.59;;;-1.54;98.34
76866;BME280;66647;52.124;5.416;2024-01-07T18:25:56;103145.31;;;-1.55;98.37